Time;durP1;ratioP1;P1;durP2;ratioP2;P2;SDS_P1;SDS_P2;PMS_P1;PMS_P2;Temp;Humidity;BMP_temperature;BMP_pressure;BME280_temperature;BME280_humidity;BME280_pressure;Samples;Min_cycle;Max_cycle;Signal;HPM_P1;HPM_P2
2021/11/16 00:00:23;;;;;;;54.10;34.50;;;9.70;99.90;;;;;;5093541;28;20695;-63
2021/11/16 00:02:52;;;;;;;56.97;36.03;;;9.70;99.90;;;;;;5093644;28;20255;-63
2021/11/16 00:05:19;;;;;;;52.85;34.50;;;9.80;99.90;;;;;;5093399;28;20222;-62
2021/11/16 00:07:47;;;;;;;51.75;32.88;;;9.80;99.90;;;;;;5093617;28;20222;-63
2021/11/16 00:10:15;;;;;;;50.20;33.25;;;9.80;99.90;;;;;;5093077;28;20266;-63
2021/11/16 00:12:42;;;;;;;44.13;33.08;;;9.90;99.90;;;;;;5093827;28;20623;-62
2021/11/16 00:15:09;;;;;;;51.60;35.60;;;9.90;99.90;;;;;;5092854;28;20231;-63
2021/11/16 00:17:37;;;;;;;50.30;35.67;;;9.90;99.90;;;;;;5093487;28;20215;-63
2021/11/16 00:20:09;;;;;;;57.75;38.97;;;9.90;99.90;;;;;;5092900;28;20230;-62
2021/11/16 00:22:36;;;;;;;51.45;36.53;;;9.80;99.90;;;;;;5093342;28;20220;-63
2021/11/16 00:25:18;;;;;;;54.42;35.25;;;9.80;99.90;;;;;;5092701;28;20223;-62
2021/11/16 00:27:46;;;;;;;53.22;37.55;;;9.70;99.90;;;;;;5084387;28;20220;-62
2021/11/16 00:30:14;;;;;;;58.10;37.13;;;9.80;99.90;;;;;;5092902;28;20239;-62
2021/11/16 00:32:42;;;;;;;56.15;35.60;;;9.80;99.90;;;;;;5092804;28;20219;-62
2021/11/16 00:35:10;;;;;;;51.17;34.20;;;9.60;99.90;;;;;;5084754;28;20851;-64
2021/11/16 00:37:38;;;;;;;52.08;35.38;;;9.60;99.90;;;;;;5076035;28;20226;-62
2021/11/16 00:40:08;;;;;;;55.88;36.38;;;9.60;99.90;;;;;;5092494;28;20223;-62
2021/11/16 00:42:35;;;;;;;51.17;34.63;;;9.50;99.90;;;;;;5092946;28;20229;-62
2021/11/16 00:45:02;;;;;;;51.20;36.00;;;9.50;99.90;;;;;;5092220;28;20573;-62
2021/11/16 00:47:29;;;;;;;48.80;34.90;;;9.40;99.90;;;;;;5092551;28;20219;-62
2021/11/16 00:49:56;;;;;;;60.97;39.58;;;9.40;99.90;;;;;;5092923;28;20589;-63
2021/11/16 00:52:25;;;;;;;52.97;36.38;;;9.40;99.90;;;;;;5092283;28;20215;-62
2021/11/16 00:54:51;;;;;;;54.47;36.83;;;9.50;99.90;;;;;;5092864;28;20231;-62
2021/11/16 00:57:18;;;;;;;61.95;37.40;;;9.40;99.90;;;;;;5092193;28;20222;-63
2021/11/16 00:59:45;;;;;;;59.85;41.55;;;9.40;99.90;;;;;;5092363;28;20238;-63
2021/11/16 01:02:16;;;;;;;58.78;38.17;;;9.40;99.90;;;;;;5092256;28;20238;-63
2021/11/16 01:04:48;;;;;;;57.58;37.55;;;9.40;99.90;;;;;;5091385;28;20632;-63
2021/11/16 01:07:16;;;;;;;55.75;37.03;;;9.40;99.90;;;;;;5092287;28;20227;-63
2021/11/16 01:09:44;;;;;;;52.08;36.75;;;9.50;99.90;;;;;;5092539;28;20246;-63
2021/11/16 01:12:12;;;;;;;57.63;36.28;;;9.40;99.90;;;;;;5092145;28;20223;-62
2021/11/16 01:14:40;;;;;;;56.85;36.35;;;9.40;99.90;;;;;;5092554;28;20223;-63
2021/11/16 01:17:07;;;;;;;57.05;36.33;;;9.40;99.90;;;;;;5090713;27;20223;-63
2021/11/16 01:19:35;;;;;;;50.70;36.35;;;9.40;99.90;;;;;;5089929;27;20604;-63
2021/11/16 01:22:02;;;;;;;51.60;36.67;;;9.40;99.90;;;;;;5089418;27;20228;-62
2021/11/16 01:24:29;;;;;;;54.72;37.30;;;9.40;99.90;;;;;;5090313;27;20227;-63
2021/11/16 01:27:00;;;;;;;60.03;38.63;;;9.40;99.90;;;;;;5090386;28;20223;-62
2021/11/16 01:29:27;;;;;;;60.15;38.28;;;9.40;99.90;;;;;;5089445;28;20223;-62
2021/11/16 01:31:56;;;;;;;48.40;35.53;;;9.30;99.90;;;;;;5090187;27;20227;-62
2021/11/16 01:34:27;;;;;;;53.42;35.85;;;9.30;99.90;;;;;;5089721;27;20681;-62
2021/11/16 01:36:55;;;;;;;58.58;39.28;;;9.30;99.90;;;;;;5090002;28;20258;-62
2021/11/16 01:39:22;;;;;;;55.78;35.67;;;9.30;99.90;;;;;;5089464;28;20269;-62
2021/11/16 01:41:50;;;;;;;60.65;37.65;;;9.30;99.90;;;;;;5089479;27;20679;-62
2021/11/16 01:44:18;;;;;;;60.00;40.65;;;9.20;99.90;;;;;;5089684;28;20215;-62
2021/11/16 01:46:45;;;;;;;56.30;37.25;;;9.20;99.90;;;;;;5091480;27;20292;-61
2021/11/16 01:49:13;;;;;;;56.05;38.17;;;9.20;99.90;;;;;;5091696;27;20235;-62
2021/11/16 01:51:40;;;;;;;57.53;39.95;;;9.20;99.90;;;;;;5092504;27;20222;-62
2021/11/16 01:54:08;;;;;;;59.15;37.33;;;9.10;99.90;;;;;;5092043;27;20565;-61
2021/11/16 01:56:40;;;;;;;62.30;41.40;;;9.10;99.90;;;;;;5092369;27;20223;-61
2021/11/16 01:59:07;;;;;;;49.53;34.90;;;9.10;99.90;;;;;;5091763;27;20677;-61
2021/11/16 02:01:41;;;;;;;62.03;40.38;;;9.10;99.90;;;;;;5092222;27;20219;-62
2021/11/16 02:04:10;;;;;;;59.42;36.47;;;9.10;99.90;;;;;;5091854;27;20258;-62
2021/11/16 02:06:39;;;;;;;59.25;38.47;;;9.20;99.90;;;;;;5092418;27;20224;-62
2021/11/16 02:09:08;;;;;;;54.63;37.17;;;9.10;99.90;;;;;;5091810;27;20570;-62
2021/11/16 02:11:36;;;;;;;58.83;37.95;;;9.10;99.90;;;;;;5092120;27;20223;-62
2021/11/16 02:14:05;;;;;;;54.58;36.17;;;9.10;99.90;;;;;;5092426;27;20215;-62
2021/11/16 02:16:35;;;;;;;56.80;39.45;;;9.20;99.90;;;;;;5093570;27;20215;-62
2021/11/16 02:19:04;;;;;;;59.40;38.65;;;9.10;99.90;;;;;;5095844;27;20232;-62
2021/11/16 02:21:33;;;;;;;66.63;43.38;;;9.10;99.90;;;;;;5095510;27;20226;-62
2021/11/16 02:24:00;;;;;;;58.97;38.28;;;9.00;99.90;;;;;;5095963;27;20238;-62
2021/11/16 02:26:28;;;;;;;55.42;37.15;;;9.00;99.90;;;;;;5095404;27;20238;-62
2021/11/16 02:28:55;;;;;;;61.05;39.33;;;8.90;99.90;;;;;;5095879;27;20238;-62
2021/11/16 02:31:23;;;;;;;61.28;39.83;;;8.90;99.90;;;;;;5095192;27;20251;-62
2021/11/16 02:33:50;;;;;;;57.75;37.60;;;8.90;99.90;;;;;;5095831;27;20596;-62
2021/11/16 02:36:17;;;;;;;57.90;38.25;;;8.80;99.90;;;;;;5095357;27;20227;-62
2021/11/16 02:38:50;;;;;;;62.78;41.53;;;8.80;99.90;;;;;;5095486;27;20231;-62
2021/11/16 02:41:17;;;;;;;60.88;40.45;;;8.80;99.90;;;;;;5095190;27;20220;-62
2021/11/16 02:43:44;;;;;;;64.63;38.20;;;8.70;99.90;;;;;;5095603;27;20607;-62
2021/11/16 02:46:11;;;;;;;57.58;38.85;;;8.70;99.90;;;;;;5095174;27;20367;-62
2021/11/16 02:48:39;;;;;;;59.85;37.20;;;8.70;99.90;;;;;;5095377;27;20230;-62
2021/11/16 02:51:08;;;;;;;60.28;38.65;;;8.70;99.90;;;;;;5095379;27;20230;-62
2021/11/16 02:53:37;;;;;;;57.83;38.95;;;8.70;99.90;;;;;;5094974;27;20968;-62
2021/11/16 02:56:06;;;;;;;56.45;38.53;;;8.60;99.90;;;;;;5095326;27;20249;-62
2021/11/16 02:58:33;;;;;;;63.35;39.10;;;8.60;99.90;;;;;;5094872;27;20226;-63
2021/11/16 03:01:06;;;;;;;57.60;38.03;;;8.70;99.90;;;;;;5095276;27;20242;-63
2021/11/16 03:03:34;;;;;;;63.45;39.80;;;8.60;99.90;;;;;;5094751;27;20633;-63
2021/11/16 03:06:01;;;;;;;60.65;40.33;;;8.60;99.90;;;;;;5095212;27;20257;-64
2021/11/16 03:08:29;;;;;;;60.75;41.58;;;8.60;99.90;;;;;;5094656;27;20230;-62
2021/11/16 03:10:59;;;;;;;62.53;38.88;;;8.60;99.90;;;;;;5095016;27;21173;-63
2021/11/16 03:13:29;;;;;;;55.78;37.35;;;8.60;99.90;;;;;;5094526;27;20676;-63
2021/11/16 03:15:57;;;;;;;60.88;38.10;;;8.70;99.90;;;;;;5095091;27;20219;-63
2021/11/16 03:18:24;;;;;;;60.67;38.83;;;8.60;99.90;;;;;;5094355;27;20228;-62
2021/11/16 03:20:51;;;;;;;60.08;37.58;;;8.60;99.90;;;;;;5094792;27;20556;-63
2021/11/16 03:23:19;;;;;;;50.10;37.58;;;8.50;99.90;;;;;;5094331;27;20542;-62
2021/11/16 03:25:50;;;;;;;63.90;38.75;;;8.50;99.90;;;;;;5094817;27;20568;-62
2021/11/16 03:28:19;;;;;;;50.03;36.17;;;8.60;99.90;;;;;;5093224;27;20223;-63
2021/11/16 03:30:51;;;;;;;53.25;37.38;;;8.60;99.90;;;;;;5094372;27;20238;-63
2021/11/16 03:33:19;;;;;;;56.80;38.72;;;8.70;99.90;;;;;;5094106;27;20253;-62
2021/11/16 03:35:47;;;;;;;56.13;38.47;;;8.70;99.90;;;;;;5094536;27;20230;-65
2021/11/16 03:38:17;;;;;;;61.70;40.78;;;8.70;99.90;;;;;;5094066;27;20223;-61
2021/11/16 03:40:44;;;;;;;54.92;36.92;;;8.60;99.90;;;;;;5094145;27;20289;-62
2021/11/16 03:43:12;;;;;;;56.03;36.25;;;8.60;99.90;;;;;;5094325;27;20242;-62
2021/11/16 03:45:40;;;;;;;56.13;38.42;;;8.70;99.90;;;;;;5094227;27;20308;-62
2021/11/16 03:48:10;;;;;;;53.55;35.45;;;8.60;99.90;;;;;;5094204;27;20238;-61
2021/11/16 03:50:37;;;;;;;60.17;38.70;;;8.60;99.90;;;;;;5093711;27;20223;-63
2021/11/16 03:53:05;;;;;;;52.17;35.13;;;8.50;99.90;;;;;;5094194;27;20242;-61
2021/11/16 03:55:34;;;;;;;57.90;36.95;;;8.50;99.90;;;;;;5093809;27;20234;-63
2021/11/16 03:58:03;;;;;;;59.97;36.47;;;8.50;99.90;;;;;;5094067;27;20235;-62
2021/11/16 04:00:33;;;;;;;54.60;38.53;;;8.50;99.90;;;;;;5093621;27;20248;-62
2021/11/16 04:03:00;;;;;;;53.05;36.30;;;8.50;99.90;;;;;;5094052;27;20292;-62
2021/11/16 04:05:29;;;;;;;54.67;37.67;;;8.60;99.90;;;;;;5093543;27;20573;-62
2021/11/16 04:07:56;;;;;;;64.35;41.30;;;8.60;99.90;;;;;;5093861;27;20238;-62
2021/11/16 04:10:24;;;;;;;55.22;37.10;;;8.60;99.90;;;;;;5093340;27;20629;-62
2021/11/16 04:12:52;;;;;;;55.45;37.00;;;8.40;99.90;;;;;;5093852;27;20561;-62
2021/11/16 04:15:22;;;;;;;58.78;36.67;;;8.40;99.90;;;;;;5093407;27;20223;-62
2021/11/16 04:17:51;;;;;;;53.47;34.95;;;8.40;99.90;;;;;;5093850;27;20223;-62
2021/11/16 04:20:21;;;;;;;54.28;36.28;;;8.40;99.90;;;;;;5093210;27;20604;-62
2021/11/16 04:22:50;;;;;;;56.22;36.00;;;8.50;99.90;;;;;;5093466;27;20227;-62
2021/11/16 04:25:17;;;;;;;62.95;39.78;;;8.50;99.90;;;;;;5093650;27;20806;-62
2021/11/16 04:27:45;;;;;;;59.60;39.05;;;8.60;99.90;;;;;;5093185;27;21029;-62
2021/11/16 04:30:14;;;;;;;54.72;36.42;;;8.60;99.90;;;;;;5093473;27;20227;-62
2021/11/16 04:32:42;;;;;;;53.25;35.22;;;8.60;99.90;;;;;;5093052;27;20223;-62
2021/11/16 04:35:10;;;;;;;55.30;36.75;;;8.60;99.90;;;;;;5093471;27;20246;-62
2021/11/16 04:37:39;;;;;;;51.72;35.88;;;8.60;99.90;;;;;;5092950;27;20227;-62
2021/11/16 04:40:09;;;;;;;51.25;36.42;;;8.60;99.90;;;;;;5093116;27;20727;-62
2021/11/16 04:42:36;;;;;;;55.35;36.47;;;8.60;99.90;;;;;;5092766;27;20262;-62
2021/11/16 04:45:04;;;;;;;52.55;34.45;;;8.60;99.90;;;;;;5093243;27;20250;-63
2021/11/16 04:47:35;;;;;;;65.78;39.22;;;8.70;99.90;;;;;;5092934;27;20227;-62
2021/11/16 04:50:09;;;;;;;48.05;36.05;;;8.60;99.90;;;;;;5093089;27;20231;-63
2021/11/16 04:52:43;;;;;;;62.55;37.35;;;8.60;99.90;;;;;;5092663;27;20223;-63
2021/11/16 04:55:26;;;;;;;59.58;38.00;;;8.60;99.90;;;;;;5093199;27;20223;-62
2021/11/16 05:03:33;;;;;;;63.78;39.25;;;8.70;99.90;;;;;;5085217;27;20688;-63
2021/11/16 05:06:00;;;;;;;55.78;34.35;;;8.70;99.90;;;;;;5093128;27;20231;-63
2021/11/16 05:08:27;;;;;;;61.20;36.20;;;8.70;99.90;;;;;;5092878;27;20231;-63
2021/11/16 05:10:55;;;;;;;58.15;37.15;;;8.70;99.90;;;;;;5092545;27;20231;-63
2021/11/16 05:13:22;;;;;;;56.83;36.63;;;8.80;99.90;;;;;;5093007;27;20237;-63
2021/11/16 05:15:50;;;;;;;57.95;37.65;;;8.80;99.90;;;;;;5092486;27;20704;-63
2021/11/16 05:18:17;;;;;;;55.45;39.33;;;8.80;99.90;;;;;;5092959;27;20276;-63
2021/11/16 05:20:44;;;;;;;53.47;35.85;;;8.90;99.90;;;;;;5092408;27;20230;-63
2021/11/16 05:23:12;;;;;;;57.67;37.33;;;8.80;99.90;;;;;;5092650;27;20681;-63
2021/11/16 05:25:39;;;;;;;65.57;38.83;;;8.90;99.90;;;;;;5092539;27;20626;-63
2021/11/16 05:28:07;;;;;;;55.10;38.17;;;8.80;99.90;;;;;;5092782;27;20242;-62
2021/11/16 05:30:36;;;;;;;59.03;36.90;;;8.80;99.90;;;;;;5092210;27;20227;-62
2021/11/16 05:33:03;;;;;;;62.13;39.55;;;8.80;99.90;;;;;;5092739;27;20243;-63
2021/11/16 05:35:30;;;;;;;72.40;41.30;;;8.70;99.90;;;;;;5092655;27;20235;-63
2021/11/16 05:37:57;;;;;;;56.80;36.05;;;8.70;99.90;;;;;;5092262;27;21106;-62
2021/11/16 05:40:24;;;;;;;52.50;36.20;;;8.70;99.90;;;;;;5092803;27;20224;-62
2021/11/16 05:42:51;;;;;;;52.20;37.88;;;8.80;99.90;;;;;;5092191;27;20566;-62
2021/11/16 05:45:19;;;;;;;62.13;41.13;;;8.80;99.90;;;;;;5092558;27;20703;-62
2021/11/16 05:47:47;;;;;;;64.50;37.67;;;8.80;99.90;;;;;;5092296;27;20215;-63
2021/11/16 05:50:14;;;;;;;55.13;37.40;;;8.80;99.90;;;;;;5092616;27;20234;-62
2021/11/16 05:52:41;;;;;;;59.45;40.08;;;8.80;99.90;;;;;;5095573;27;20219;-63
2021/11/16 05:55:10;;;;;;;54.40;37.15;;;8.90;99.90;;;;;;5096525;27;20226;-63
2021/11/16 05:57:37;;;;;;;64.85;40.28;;;8.90;99.90;;;;;;5096017;27;20231;-63
2021/11/16 06:00:08;;;;;;;55.92;37.70;;;8.90;99.90;;;;;;5096439;27;20231;-62
2021/11/16 06:02:36;;;;;;;68.35;40.65;;;8.90;99.90;;;;;;5096073;27;20219;-63
2021/11/16 06:05:04;;;;;;;63.83;40.17;;;9.00;99.90;;;;;;5096259;27;20356;-63
2021/11/16 06:07:31;;;;;;;57.90;37.20;;;8.90;99.90;;;;;;5096299;27;20273;-63
2021/11/16 06:09:57;;;;;;;63.78;41.55;;;8.90;99.90;;;;;;5095749;27;20230;-63
2021/11/16 06:12:24;;;;;;;70.57;44.28;;;8.80;99.90;;;;;;5096143;27;20706;-63
2021/11/16 06:14:51;;;;;;;63.88;40.30;;;8.80;99.90;;;;;;5095704;27;20230;-63
2021/11/16 06:17:20;;;;;;;62.75;40.72;;;8.80;99.90;;;;;;5096120;27;20226;-63
2021/11/16 06:19:49;;;;;;;62.58;42.72;;;8.80;99.90;;;;;;5095487;27;20280;-63
2021/11/16 06:22:16;;;;;;;64.13;41.65;;;8.80;99.90;;;;;;5095965;27;20231;-63
2021/11/16 06:24:43;;;;;;;55.60;38.88;;;8.80;99.90;;;;;;5095273;27;20626;-63
2021/11/16 06:27:10;;;;;;;67.20;40.67;;;8.80;99.90;;;;;;5095916;27;20284;-63
2021/11/16 06:29:38;;;;;;;59.88;37.35;;;8.80;99.90;;;;;;5095366;27;20227;-62
2021/11/16 06:32:07;;;;;;;64.78;41.00;;;8.80;99.90;;;;;;5095562;27;20230;-63
2021/11/16 06:34:35;;;;;;;62.08;38.70;;;8.80;99.90;;;;;;5095748;27;20705;-63
2021/11/16 06:37:04;;;;;;;58.47;39.22;;;8.80;99.90;;;;;;5095544;27;20972;-63
2021/11/16 06:39:31;;;;;;;63.03;39.80;;;8.90;99.90;;;;;;5095682;27;20230;-63
2021/11/16 06:41:59;;;;;;;56.70;36.20;;;8.90;99.90;;;;;;5095149;27;20233;-63
2021/11/16 06:44:27;;;;;;;63.97;37.88;;;8.90;99.90;;;;;;5095531;27;20234;-62
2021/11/16 06:46:56;;;;;;;53.08;36.10;;;8.90;99.90;;;;;;5095279;27;20696;-64
2021/11/16 06:49:23;;;;;;;51.15;34.65;;;8.90;99.90;;;;;;5095238;27;20223;-63
2021/11/16 06:51:53;;;;;;;55.30;32.47;;;8.90;99.90;;;;;;5095079;27;20223;-62
2021/11/16 06:54:23;;;;;;;50.95;34.90;;;8.90;99.90;;;;;;5095342;27;20233;-64
2021/11/16 06:56:51;;;;;;;48.75;32.55;;;8.90;99.90;;;;;;5094935;27;20222;-62
2021/11/16 06:59:20;;;;;;;48.90;32.05;;;8.90;99.90;;;;;;5095293;27;20833;-62
2021/11/16 07:01:47;;;;;;;45.70;31.58;;;8.80;99.90;;;;;;5094817;27;20215;-62
2021/11/16 07:04:14;;;;;;;46.28;30.92;;;8.90;99.90;;;;;;5095074;27;20242;-62
2021/11/16 07:06:43;;;;;;;51.55;32.33;;;8.80;99.90;;;;;;5094823;27;20227;-62
2021/11/16 07:09:13;;;;;;;46.60;31.25;;;8.90;99.90;;;;;;5095116;27;20689;-62
2021/11/16 07:11:47;;;;;;;49.50;33.63;;;8.90;99.90;;;;;;5094644;27;20617;-61
2021/11/16 07:14:16;;;;;;;52.63;33.95;;;8.90;99.90;;;;;;5094913;27;20866;-62
2021/11/16 07:16:57;;;;;;;42.58;30.38;;;8.90;99.90;;;;;;5094654;27;20239;-63
2021/11/16 07:19:32;;;;;;;51.67;32.88;;;8.90;99.90;;;;;;5094756;27;20677;-63
2021/11/16 07:22:03;;;;;;;50.88;33.67;;;8.80;99.90;;;;;;5094296;27;20230;-62
2021/11/16 07:24:31;;;;;;;51.33;32.00;;;8.70;99.90;;;;;;5094617;27;20242;-63
2021/11/16 07:27:02;;;;;;;52.38;31.90;;;8.70;99.90;;;;;;5094324;27;20234;-62
2021/11/16 07:29:35;;;;;;;48.05;31.55;;;8.70;99.90;;;;;;5094696;27;20227;-63
2021/11/16 07:32:03;;;;;;;40.33;29.13;;;8.70;99.90;;;;;;5094114;27;20234;-63
2021/11/16 07:34:32;;;;;;;54.80;37.10;;;8.70;99.90;;;;;;5094573;27;20223;-62
2021/11/16 07:37:01;;;;;;;53.35;34.40;;;8.70;99.90;;;;;;5094215;27;20226;-63
2021/11/16 07:39:29;;;;;;;53.50;33.13;;;8.70;99.90;;;;;;5094385;27;20288;-62
2021/11/16 07:42:06;;;;;;;59.42;37.88;;;8.70;99.90;;;;;;5094035;27;20235;-63
2021/11/16 07:44:34;;;;;;;50.13;33.83;;;8.60;99.90;;;;;;5094357;27;20237;-63
2021/11/16 07:47:02;;;;;;;48.55;31.58;;;8.70;99.90;;;;;;5093810;27;20693;-63
2021/11/16 07:49:29;;;;;;;49.05;34.78;;;8.70;99.90;;;;;;5094299;27;20231;-63
2021/11/16 07:51:57;;;;;;;52.20;31.70;;;8.80;99.90;;;;;;5093869;27;20228;-62
2021/11/16 07:54:24;;;;;;;58.67;34.30;;;8.80;99.90;;;;;;5093941;27;20223;-62
2021/11/16 07:56:52;;;;;;;60.88;37.35;;;8.80;99.90;;;;;;5093753;27;20604;-62
2021/11/16 07:59:24;;;;;;;50.92;33.85;;;8.80;99.90;;;;;;5094240;27;20223;-63
2021/11/16 08:01:58;;;;;;;57.45;35.50;;;8.90;99.90;;;;;;5093622;27;20220;-63
2021/11/16 08:04:29;;;;;;;61.88;37.55;;;8.90;99.90;;;;;;5093716;27;20518;-62
2021/11/16 08:07:03;;;;;;;54.10;35.95;;;8.80;99.90;;;;;;5093528;27;20246;-63
2021/11/16 08:09:42;;;;;;;62.00;37.50;;;8.90;99.90;;;;;;5093990;27;20284;-63
2021/11/16 08:12:23;;;;;;;52.88;35.67;;;8.90;99.90;;;;;;5093733;27;20384;-63
2021/11/16 08:14:59;;;;;;;56.13;36.28;;;9.00;99.90;;;;;;5092826;27;20729;-63
2021/11/16 08:17:27;;;;;;;53.53;34.67;;;9.10;99.90;;;;;;5093700;27;20223;-62
2021/11/16 08:19:57;;;;;;;57.63;35.58;;;9.10;99.90;;;;;;5093254;27;20239;-62
2021/11/16 08:22:24;;;;;;;52.28;32.97;;;9.10;99.90;;;;;;5093951;27;20735;-63
2021/11/16 08:24:51;;;;;;;57.30;34.20;;;9.20;99.90;;;;;;5093000;27;20227;-62
2021/11/16 08:27:21;;;;;;;53.95;36.53;;;9.20;99.90;;;;;;5093511;27;20222;-63
2021/11/16 08:29:52;;;;;;;63.83;38.05;;;9.20;99.90;;;;;;5093206;27;20228;-63
2021/11/16 08:32:22;;;;;;;52.58;35.25;;;9.30;99.90;;;;;;5093038;27;20230;-63
2021/11/16 08:34:54;;;;;;;53.95;33.13;;;9.30;99.90;;;;;;5092989;27;20700;-63
2021/11/16 08:37:22;;;;;;;52.75;34.80;;;9.40;99.90;;;;;;5093261;27;20215;-63
2021/11/16 08:39:54;;;;;;;48.90;34.60;;;9.40;99.90;;;;;;5092864;27;20234;-63
2021/11/16 08:42:23;;;;;;;50.45;32.97;;;9.60;99.90;;;;;;5093276;27;20230;-63
2021/11/16 08:44:55;;;;;;;58.28;34.15;;;9.60;99.90;;;;;;5092778;27;20685;-63
2021/11/16 08:47:26;;;;;;;52.50;34.10;;;9.60;99.90;;;;;;5093429;27;20234;-63
2021/11/16 08:49:54;;;;;;;56.20;36.65;;;9.70;99.90;;;;;;5092673;27;20223;-63
2021/11/16 08:52:22;;;;;;;57.70;35.67;;;9.70;99.90;;;;;;5092807;27;20227;-63
2021/11/16 08:54:58;;;;;;;58.97;35.17;;;9.70;99.90;;;;;;5092780;27;20249;-63
2021/11/16 08:57:28;;;;;;;53.90;33.78;;;9.80;99.90;;;;;;5093239;27;20584;-63
2021/11/16 08:59:57;;;;;;;54.63;32.72;;;9.80;99.90;;;;;;5092617;27;20231;-63
2021/11/16 09:02:27;;;;;;;56.33;34.10;;;9.90;99.90;;;;;;5093031;27;20310;-63
2021/11/16 09:04:54;;;;;;;51.17;34.13;;;9.90;99.90;;;;;;5092655;27;20227;-63
2021/11/16 09:07:27;;;;;;;59.53;37.63;;;10.00;99.90;;;;;;5092952;27;20700;-63
2021/11/16 09:10:02;;;;;;;56.08;35.53;;;10.10;99.90;;;;;;5092325;27;20289;-64
2021/11/16 09:12:40;;;;;;;54.25;34.80;;;10.10;99.90;;;;;;5092939;27;20280;-63
2021/11/16 09:15:11;;;;;;;54.92;34.03;;;10.10;99.90;;;;;;5092186;27;20227;-63
2021/11/16 09:17:40;;;;;;;62.05;36.38;;;10.20;99.90;;;;;;5092798;27;20673;-63
2021/11/16 09:20:21;;;;;;;63.85;38.05;;;10.10;99.90;;;;;;5092282;27;20235;-63
2021/11/16 09:22:49;;;;;;;62.78;35.67;;;10.10;99.90;;;;;;5092778;27;20690;-63
2021/11/16 09:25:25;;;;;;;51.70;33.50;;;10.10;99.90;;;;;;5092519;27;20280;-63
2021/11/16 09:28:00;;;;;;;52.58;35.33;;;10.20;99.90;;;;;;5096538;27;20219;-63
2021/11/16 09:30:34;;;;;;;53.17;34.90;;;10.20;99.90;;;;;;5097001;27;20330;-63
2021/11/16 09:33:04;;;;;;;54.45;31.90;;;10.30;99.90;;;;;;5096419;27;20231;-63
2021/11/16 09:35:46;;;;;;;58.92;35.90;;;10.30;99.90;;;;;;5096972;27;20302;-63
2021/11/16 09:38:14;;;;;;;61.13;35.42;;;10.30;99.90;;;;;;5096330;27;20222;-63
2021/11/16 09:40:41;;;;;;;59.33;34.25;;;10.40;99.90;;;;;;5096812;27;20230;-63
2021/11/16 09:43:11;;;;;;;55.25;36.17;;;10.30;99.90;;;;;;5096380;27;20227;-63
2021/11/16 09:45:44;;;;;;;56.60;34.67;;;10.30;99.90;;;;;;5096869;27;20573;-63
2021/11/16 09:48:21;;;;;;;52.83;34.33;;;10.30;99.90;;;;;;5096177;27;20234;-63
2021/11/16 09:50:48;;;;;;;51.28;33.83;;;10.40;99.90;;;;;;5096519;27;20688;-63
2021/11/16 09:53:16;;;;;;;53.13;37.65;;;10.40;99.90;;;;;;5096120;27;20676;-63
2021/11/16 09:55:44;;;;;;;52.63;34.63;;;10.30;99.90;;;;;;5096561;27;20525;-63
2021/11/16 09:58:22;;;;;;;49.70;29.98;;;10.30;99.90;;;;;;5096058;27;20250;-63
2021/11/16 10:00:50;;;;;;;49.53;31.80;;;10.40;99.90;;;;;;5096372;27;20219;-63
2021/11/16 10:03:19;;;;;;;53.20;34.25;;;10.40;99.90;;;;;;5096008;27;20235;-63
2021/11/16 10:05:48;;;;;;;53.10;34.67;;;10.40;99.90;;;;;;5096232;27;20227;-63
2021/11/16 10:08:18;;;;;;;51.22;34.10;;;10.30;99.90;;;;;;5095592;27;20229;-63
2021/11/16 10:10:47;;;;;;;54.42;35.42;;;10.30;99.90;;;;;;5096277;27;20302;-63
2021/11/16 10:13:17;;;;;;;53.50;34.13;;;10.30;99.90;;;;;;5095716;27;20249;-63
2021/11/16 10:15:47;;;;;;;52.42;31.58;;;10.30;99.90;;;;;;5096080;27;20242;-63
2021/11/16 10:18:16;;;;;;;45.47;31.80;;;10.30;99.90;;;;;;5095818;27;20257;-63
2021/11/16 10:20:45;;;;;;;59.80;34.60;;;10.40;99.90;;;;;;5095934;27;20226;-63
2021/11/16 10:23:15;;;;;;;67.97;45.85;;;10.40;99.90;;;;;;5095334;27;20230;-63
2021/11/16 10:25:52;;;;;;;55.75;34.92;;;10.40;99.90;;;;;;5096017;27;20242;-63
2021/11/16 10:28:19;;;;;;;56.83;40.75;;;10.40;99.90;;;;;;5095610;27;20669;-63
2021/11/16 10:30:47;;;;;;;57.92;39.70;;;10.50;99.90;;;;;;5095525;27;20686;-63
2021/11/16 10:33:18;;;;;;;56.70;38.33;;;10.40;99.90;;;;;;5095302;27;20234;-64
2021/11/16 10:35:50;;;;;;;53.78;36.08;;;10.40;99.90;;;;;;5095824;27;20319;-63
2021/11/16 10:38:19;;;;;;;53.30;36.80;;;10.50;99.90;;;;;;5094772;27;20227;-63
2021/11/16 10:40:47;;;;;;;53.05;36.88;;;10.50;99.90;;;;;;5095636;27;20227;-63
2021/11/16 10:43:15;;;;;;;65.82;43.38;;;10.40;99.90;;;;;;5095277;27;20238;-63
2021/11/16 10:45:44;;;;;;;68.30;48.25;;;10.40;99.90;;;;;;5095474;27;20236;-63
2021/11/16 10:48:14;;;;;;;72.32;51.67;;;10.40;99.90;;;;;;5095089;27;20292;-63
2021/11/16 10:50:46;;;;;;;62.70;42.50;;;10.50;99.90;;;;;;5095517;27;20223;-63
2021/11/16 10:53:15;;;;;;;56.95;39.92;;;10.50;99.90;;;;;;5095009;27;20223;-63
2021/11/16 10:55:45;;;;;;;59.95;39.10;;;10.40;99.90;;;;;;5095506;27;20298;-63
2021/11/16 10:58:14;;;;;;;91.68;62.00;;;10.40;99.90;;;;;;5094899;27;20231;-63
2021/11/16 11:00:46;;;;;;;65.07;43.72;;;10.40;99.90;;;;;;5095256;27;20223;-63
2021/11/16 11:03:23;;;;;;;64.50;42.97;;;10.30;99.90;;;;;;5094700;27;20306;-63
2021/11/16 11:05:52;;;;;;;57.50;38.60;;;10.50;99.90;;;;;;5087714;27;20619;-63
2021/11/16 11:08:30;;;;;;;59.15;36.03;;;10.50;99.90;;;;;;5086901;28;20227;-64
2021/11/16 11:10:57;;;;;;;56.35;33.65;;;10.50;99.90;;;;;;5075036;28;20228;-63
2021/11/16 11:13:27;;;;;;;53.53;32.70;;;10.60;99.90;;;;;;5075515;28;21014;-63
2021/11/16 11:15:53;;;;;;;61.80;38.17;;;10.60;99.90;;;;;;5093136;28;20247;-63
2021/11/16 11:18:38;;;;;;;60.42;38.85;;;10.70;99.90;;;;;;5092743;28;20261;-63
2021/11/16 11:21:10;;;;;;;55.17;34.78;;;10.80;99.90;;;;;;5092597;28;20241;-61
2021/11/16 11:23:43;;;;;;;49.25;33.92;;;10.80;99.90;;;;;;5077216;28;20223;-63
2021/11/16 11:26:32;;;;;;;46.30;32.25;;;10.80;99.90;;;;;;5074076;28;20629;-63
2021/11/16 11:29:19;;;;;;;59.20;41.08;;;10.90;99.90;;;;;;5074364;28;20224;-63
2021/11/16 11:31:48;;;;;;;63.22;41.13;;;10.90;99.90;;;;;;5074138;28;20217;-63
2021/11/16 11:34:15;;;;;;;60.33;41.60;;;10.90;99.90;;;;;;5074326;28;20281;-63
2021/11/16 11:36:44;;;;;;;86.72;57.53;;;11.00;99.90;;;;;;5073998;28;20689;-63
2021/11/16 11:39:19;;;;;;;52.33;37.88;;;11.00;99.90;;;;;;5078179;28;20231;-62
2021/11/16 11:41:52;;;;;;;118.65;78.13;;;11.00;99.90;;;;;;5093933;28;20229;-63
2021/11/16 11:44:20;;;;;;;68.68;46.70;;;11.00;99.90;;;;;;5094488;28;20223;-63
2021/11/16 11:46:53;;;;;;;71.45;44.88;;;11.00;99.90;;;;;;5093795;28;20300;-63
2021/11/16 11:49:21;;;;;;;77.03;50.50;;;11.00;99.90;;;;;;5093330;28;20689;-63
2021/11/16 11:51:51;;;;;;;59.83;39.20;;;11.00;99.90;;;;;;5093827;28;20230;-63
2021/11/16 11:54:20;;;;;;;77.03;49.95;;;11.00;99.90;;;;;;5094185;28;20219;-63
2021/11/16 11:56:48;;;;;;;58.45;37.47;;;11.00;99.90;;;;;;5093767;28;20674;-63
2021/11/16 11:59:15;;;;;;;68.88;48.80;;;11.00;99.90;;;;;;5093883;28;20224;-63
2021/11/16 12:01:43;;;;;;;65.68;43.72;;;11.10;99.90;;;;;;5094264;28;20219;-63
2021/11/16 12:04:13;;;;;;;65.85;43.75;;;11.00;99.90;;;;;;5093676;28;20227;-63
2021/11/16 12:06:40;;;;;;;57.17;38.80;;;11.10;99.90;;;;;;5088309;28;20227;-63
2021/11/16 12:09:10;;;;;;;55.50;36.85;;;11.10;99.90;;;;;;5073153;28;20605;-63
2021/11/16 12:11:37;;;;;;;73.47;47.83;;;11.20;99.90;;;;;;5073655;28;20300;-63
2021/11/16 12:14:14;;;;;;;58.33;37.00;;;11.20;99.90;;;;;;5094445;28;20222;-63
2021/11/16 12:16:51;;;;;;;53.83;38.10;;;11.20;99.90;;;;;;5114222;28;20218;-63
2021/11/16 12:19:19;;;;;;;63.95;43.20;;;11.20;99.90;;;;;;5113871;28;20238;-63
2021/11/16 12:21:48;;;;;;;60.40;41.67;;;11.20;99.90;;;;;;5114014;28;20297;-63
2021/11/16 12:24:18;;;;;;;79.18;49.80;;;11.30;99.90;;;;;;5113528;28;20214;-63
2021/11/16 12:26:59;;;;;;;68.70;42.40;;;11.30;99.90;;;;;;5113979;28;20254;-63
2021/11/16 12:29:28;;;;;;;89.30;54.88;;;11.30;99.90;;;;;;5113715;28;20704;-63
2021/11/16 12:32:13;;;;;;;56.75;38.25;;;11.30;99.90;;;;;;5113741;28;20253;-63
2021/11/16 12:34:48;;;;;;;82.05;50.97;;;11.30;99.90;;;;;;5114081;28;20210;-63
2021/11/16 12:37:30;;;;;;;88.03;51.83;;;11.20;99.90;;;;;;5113519;28;20209;-63
2021/11/16 12:40:02;;;;;;;61.70;36.83;;;11.20;99.90;;;;;;5113262;27;20279;-63
2021/11/16 12:42:29;;;;;;;62.63;39.33;;;11.20;99.90;;;;;;5094102;27;20223;-63
2021/11/16 12:44:58;;;;;;;69.50;41.17;;;11.20;99.90;;;;;;5092626;28;20227;-64
2021/11/16 12:47:27;;;;;;;52.42;34.20;;;11.20;99.90;;;;;;5093036;28;20219;-63
2021/11/16 12:50:08;;;;;;;67.28;40.22;;;11.20;99.90;;;;;;5092755;28;20284;-63